Harrisonburg, Virginia
Current Conditions -  °F | °C
As of 4:35 PM on Friday 24 Oct 2014 (Local Time) from KVBW Reporting Station
Clear Clear  
Wind Chill: 67°   Ceiling: Unl
Heat Index: 67°   Visibility: 10mi
Dew Point: 35°   Wind: 0mph
Humidity: 31%   Direction: NA
Pressure: 29.94"   Gusts: NA
Location:  38.45°N, 78.87°W
Report Text: KVBW 242035Z AUTO 00000KT 10SM CLR 19/02 A2994 RMK AO2 T01940016
Loading
Personal Weather Stations






























Interactive Weather Map New forecast layout! Learn more

10-Day Weather Forecast

Advertisements
Track Severe Weather on mobile